Terminal Aerodrome Forecast
Issued by NWS

Home | Current Version | Previous Version | Text Only | Print | Product List | Glossary On
Versions: 1 2 3 4 5 6 7 8 9 10 11 12 13 14 15 16 17 18 19 20 21 22 23 24 25 26
727
FTUS45 KCYS 060529
TAFLAR
TAF
KLAR 060529Z 0606/0706 25016KT P6SM SCT200
     FM061200 24022G28KT P6SM BKN200
     FM061800 25022G30KT P6SM BKN150=

USA.gov is the U.S. government's official web portal to all federal, state and local government web resources and services.